sensor_id;sensor_type;location;lat;lon;timestamp;P1;durP1;ratioP1;P2;durP2;ratioP2
2662;SDS011;49701;48.072;7.800;2022-07-26T02:09:48;2.35;;;0.85;;
2662;SDS011;49701;48.072;7.800;2022-07-26T02:12:14;1.95;;;0.80;;
2662;SDS011;49701;48.072;7.800;2022-07-26T02:14:39;1.63;;;0.88;;
2662;SDS011;49701;48.072;7.800;2022-07-26T02:17:05;1.67;;;0.60;;
2662;SDS011;49701;48.072;7.800;2022-07-26T02:19:31;1.48;;;0.80;;
2662;SDS011;49701;48.072;7.800;2022-07-26T02:21:57;1.88;;;1.00;;
2662;SDS011;49701;48.072;7.800;2022-07-26T02:24:23;1.70;;;0.90;;
2662;SDS011;49701;48.072;7.800;2022-07-26T02:26:54;1.50;;;0.77;;
2662;SDS011;49701;48.072;7.800;2022-07-26T02:29:23;0.95;;;0.80;;
2662;SDS011;49701;48.072;7.800;2022-07-26T02:31:49;0.80;;;0.75;;
2662;SDS011;49701;48.072;7.800;2022-07-26T02:34:15;1.55;;;0.80;;
2662;SDS011;49701;48.072;7.800;2022-07-26T02:36:41;1.85;;;0.95;;
2662;SDS011;49701;48.072;7.800;2022-07-26T02:39:07;2.28;;;0.70;;
2662;SDS011;49701;48.072;7.800;2022-07-26T02:41:32;2.95;;;0.88;;
2662;SDS011;49701;48.072;7.800;2022-07-26T02:43:58;3.40;;;0.82;;
2662;SDS011;49701;48.072;7.800;2022-07-26T02:46:24;1.25;;;1.00;;
2662;SDS011;49701;48.072;7.800;2022-07-26T02:48:50;0.98;;;0.68;;
2662;SDS011;49701;48.072;7.800;2022-07-26T02:51:15;1.98;;;0.90;;
2662;SDS011;49701;48.072;7.800;2022-07-26T02:53:41;1.02;;;0.70;;
2662;SDS011;49701;48.072;7.800;2022-07-26T02:56:07;1.58;;;0.90;;
2662;SDS011;49701;48.072;7.800;2022-07-26T02:58:32;1.77;;;0.88;;
2662;SDS011;49701;48.072;7.800;2022-07-26T03:00:58;3.20;;;0.70;;
2662;SDS011;49701;48.072;7.800;2022-07-26T03:03:24;1.10;;;0.93;;
2662;SDS011;49701;48.072;7.800;2022-07-26T03:05:49;1.45;;;0.98;;
2662;SDS011;49701;48.072;7.800;2022-07-26T03:08:15;2.53;;;1.10;;
2662;SDS011;49701;48.072;7.800;2022-07-26T03:10:41;2.22;;;1.00;;
2662;SDS011;49701;48.072;7.800;2022-07-26T03:13:06;1.50;;;0.90;;
2662;SDS011;49701;48.072;7.800;2022-07-26T03:15:32;1.70;;;0.80;;
2662;SDS011;49701;48.072;7.800;2022-07-26T03:17:57;2.47;;;1.17;;
2662;SDS011;49701;48.072;7.800;2022-07-26T03:20:23;1.02;;;0.82;;
2662;SDS011;49701;48.072;7.800;2022-07-26T03:22:48;2.65;;;0.93;;
2662;SDS011;49701;48.072;7.800;2022-07-26T03:25:14;2.92;;;1.17;;
2662;SDS011;49701;48.072;7.800;2022-07-26T03:27:40;2.17;;;1.02;;
2662;SDS011;49701;48.072;7.800;2022-07-26T03:30:06;1.60;;;1.02;;
2662;SDS011;49701;48.072;7.800;2022-07-26T03:32:32;1.10;;;1.00;;
2662;SDS011;49701;48.072;7.800;2022-07-26T03:34:57;2.92;;;1.00;;
2662;SDS011;49701;48.072;7.800;2022-07-26T03:37:23;2.83;;;1.00;;
2662;SDS011;49701;48.072;7.800;2022-07-26T03:39:49;3.10;;;1.10;;
2662;SDS011;49701;48.072;7.800;2022-07-26T03:42:14;2.42;;;1.20;;
2662;SDS011;49701;48.072;7.800;2022-07-26T03:44:41;0.85;;;0.82;;
2662;SDS011;49701;48.072;7.800;2022-07-26T03:47:07;1.77;;;1.10;;
2662;SDS011;49701;48.072;7.800;2022-07-26T03:49:32;1.80;;;0.85;;
2662;SDS011;49701;48.072;7.800;2022-07-26T03:51:58;2.28;;;0.95;;
2662;SDS011;49701;48.072;7.800;2022-07-26T03:54:24;1.08;;;0.80;;
2662;SDS011;49701;48.072;7.800;2022-07-26T03:56:49;2.20;;;1.07;;
2662;SDS011;49701;48.072;7.800;2022-07-26T03:59:15;1.35;;;0.90;;
2662;SDS011;49701;48.072;7.800;2022-07-26T04:01:42;2.45;;;1.10;;
2662;SDS011;49701;48.072;7.800;2022-07-26T04:04:12;3.58;;;1.20;;
2662;SDS011;49701;48.072;7.800;2022-07-26T04:06:39;1.25;;;0.93;;
2662;SDS011;49701;48.072;7.800;2022-07-26T04:09:05;3.05;;;0.90;;
2662;SDS011;49701;48.072;7.800;2022-07-26T04:11:32;1.52;;;0.73;;
2662;SDS011;49701;48.072;7.800;2022-07-26T04:13:58;2.05;;;1.23;;
2662;SDS011;49701;48.072;7.800;2022-07-26T04:16:24;2.85;;;1.23;;
2662;SDS011;49701;48.072;7.800;2022-07-26T04:18:51;1.33;;;1.17;;
2662;SDS011;49701;48.072;7.800;2022-07-26T04:21:17;1.27;;;0.98;;
2662;SDS011;49701;48.072;7.800;2022-07-26T04:23:42;1.67;;;1.00;;
2662;SDS011;49701;48.072;7.800;2022-07-26T04:26:08;3.58;;;1.13;;
2662;SDS011;49701;48.072;7.800;2022-07-26T04:28:33;3.10;;;1.52;;
2662;SDS011;49701;48.072;7.800;2022-07-26T04:30:59;2.95;;;1.20;;
2662;SDS011;49701;48.072;7.800;2022-07-26T04:33:25;4.55;;;1.52;;
2662;SDS011;49701;48.072;7.800;2022-07-26T04:35:51;3.45;;;1.23;;
2662;SDS011;49701;48.072;7.800;2022-07-26T04:38:17;2.03;;;1.23;;
2662;SDS011;49701;48.072;7.800;2022-07-26T04:40:43;1.33;;;1.23;;
2662;SDS011;49701;48.072;7.800;2022-07-26T04:43:09;2.45;;;1.35;;
2662;SDS011;49701;48.072;7.800;2022-07-26T04:45:35;4.53;;;1.50;;
2662;SDS011;49701;48.072;7.800;2022-07-26T04:48:01;1.95;;;1.15;;
2662;SDS011;49701;48.072;7.800;2022-07-26T04:50:27;2.25;;;1.30;;
2662;SDS011;49701;48.072;7.800;2022-07-26T04:52:53;1.88;;;1.20;;
2662;SDS011;49701;48.072;7.800;2022-07-26T04:55:20;3.60;;;1.50;;
2662;SDS011;49701;48.072;7.800;2022-07-26T04:57:47;2.08;;;1.02;;
2662;SDS011;49701;48.072;7.800;2022-07-26T05:00:14;5.20;;;1.45;;
2662;SDS011;49701;48.072;7.800;2022-07-26T05:02:45;4.07;;;1.27;;
2662;SDS011;49701;48.072;7.800;2022-07-26T05:05:10;2.95;;;1.40;;
2662;SDS011;49701;48.072;7.800;2022-07-26T05:07:40;2.85;;;1.60;;
2662;SDS011;49701;48.072;7.800;2022-07-26T05:10:07;3.03;;;1.40;;
2662;SDS011;49701;48.072;7.800;2022-07-26T05:12:33;2.67;;;1.50;;
2662;SDS011;49701;48.072;7.800;2022-07-26T05:14:59;4.13;;;1.30;;
2662;SDS011;49701;48.072;7.800;2022-07-26T05:17:25;5.65;;;1.60;;
2662;SDS011;49701;48.072;7.800;2022-07-26T05:19:51;4.40;;;1.40;;
2662;SDS011;49701;48.072;7.800;2022-07-26T05:22:16;2.35;;;1.42;;
2662;SDS011;49701;48.072;7.800;2022-07-26T05:24:42;1.23;;;1.00;;
2662;SDS011;49701;48.072;7.800;2022-07-26T05:27:07;2.75;;;1.30;;
2662;SDS011;49701;48.072;7.800;2022-07-26T05:29:33;4.32;;;1.15;;
2662;SDS011;49701;48.072;7.800;2022-07-26T05:31:59;4.85;;;1.40;;
2662;SDS011;49701;48.072;7.800;2022-07-26T05:34:24;3.55;;;1.20;;
2662;SDS011;49701;48.072;7.800;2022-07-26T05:36:50;2.05;;;1.35;;
2662;SDS011;49701;48.072;7.800;2022-07-26T05:39:15;4.10;;;1.17;;
2662;SDS011;49701;48.072;7.800;2022-07-26T05:41:41;3.03;;;1.55;;
2662;SDS011;49701;48.072;7.800;2022-07-26T05:44:07;5.40;;;1.38;;
2662;SDS011;49701;48.072;7.800;2022-07-26T05:46:34;1.77;;;1.13;;
2662;SDS011;49701;48.072;7.800;2022-07-26T05:49:01;3.85;;;1.70;;
2662;SDS011;49701;48.072;7.800;2022-07-26T05:51:27;6.13;;;1.33;;
2662;SDS011;49701;48.072;7.800;2022-07-26T05:53:54;2.50;;;1.48;;
2662;SDS011;49701;48.072;7.800;2022-07-26T05:56:20;4.18;;;1.35;;
2662;SDS011;49701;48.072;7.800;2022-07-26T05:58:45;1.55;;;1.40;;
2662;SDS011;49701;48.072;7.800;2022-07-26T06:01:11;2.85;;;1.13;;
2662;SDS011;49701;48.072;7.800;2022-07-26T06:03:36;4.07;;;1.20;;
2662;SDS011;49701;48.072;7.800;2022-07-26T06:06:02;3.50;;;1.30;;
2662;SDS011;49701;48.072;7.800;2022-07-26T06:08:28;2.30;;;1.10;;
2662;SDS011;49701;48.072;7.800;2022-07-26T06:13:19;4.85;;;1.40;;
2662;SDS011;49701;48.072;7.800;2022-07-26T06:15:45;3.83;;;1.27;;
2662;SDS011;49701;48.072;7.800;2022-07-26T06:18:11;3.58;;;1.17;;
2662;SDS011;49701;48.072;7.800;2022-07-26T06:20:37;5.00;;;1.35;;
2662;SDS011;49701;48.072;7.800;2022-07-26T06:23:04;2.92;;;1.65;;
2662;SDS011;49701;48.072;7.800;2022-07-26T06:25:29;1.95;;;1.20;;
2662;SDS011;49701;48.072;7.800;2022-07-26T06:27:55;8.75;;;1.40;;
2662;SDS011;49701;48.072;7.800;2022-07-26T06:30:21;5.32;;;1.50;;
2662;SDS011;49701;48.072;7.800;2022-07-26T06:32:46;2.72;;;0.93;;
2662;SDS011;49701;48.072;7.800;2022-07-26T06:35:12;2.45;;;1.20;;
2662;SDS011;49701;48.072;7.800;2022-07-26T06:37:39;3.10;;;1.10;;
2662;SDS011;49701;48.072;7.800;2022-07-26T06:40:06;1.77;;;1.02;;
2662;SDS011;49701;48.072;7.800;2022-07-26T06:42:33;2.92;;;1.40;;
2662;SDS011;49701;48.072;7.800;2022-07-26T06:44:59;1.75;;;1.15;;
2662;SDS011;49701;48.072;7.800;2022-07-26T06:47:26;2.03;;;1.08;;
2662;SDS011;49701;48.072;7.800;2022-07-26T06:49:51;3.50;;;1.13;;
2662;SDS011;49701;48.072;7.800;2022-07-26T06:52:17;2.67;;;1.20;;
2662;SDS011;49701;48.072;7.800;2022-07-26T06:54:43;3.58;;;1.27;;
2662;SDS011;49701;48.072;7.800;2022-07-26T06:57:08;9.45;;;1.13;;
2662;SDS011;49701;48.072;7.800;2022-07-26T06:59:34;5.38;;;1.23;;
2662;SDS011;49701;48.072;7.800;2022-07-26T07:02:00;2.55;;;0.90;;
2662;SDS011;49701;48.072;7.800;2022-07-26T07:04:29;2.65;;;0.98;;
2662;SDS011;49701;48.072;7.800;2022-07-26T07:06:57;3.28;;;1.08;;
2662;SDS011;49701;48.072;7.800;2022-07-26T07:09:29;2.88;;;0.98;;
2662;SDS011;49701;48.072;7.800;2022-07-26T07:11:56;1.88;;;0.95;;
2662;SDS011;49701;48.072;7.800;2022-07-26T07:14:21;3.88;;;0.82;;
2662;SDS011;49701;48.072;7.800;2022-07-26T07:16:47;4.18;;;1.13;;
2662;SDS011;49701;48.072;7.800;2022-07-26T07:19:12;3.15;;;0.88;;
2662;SDS011;49701;48.072;7.800;2022-07-26T07:21:38;5.10;;;1.15;;
2662;SDS011;49701;48.072;7.800;2022-07-26T07:24:04;2.28;;;1.20;;
2662;SDS011;49701;48.072;7.800;2022-07-26T07:26:30;2.92;;;1.42;;
2662;SDS011;49701;48.072;7.800;2022-07-26T07:28:56;3.40;;;1.00;;
2662;SDS011;49701;48.072;7.800;2022-07-26T07:31:22;1.10;;;0.90;;
2662;SDS011;49701;48.072;7.800;2022-07-26T07:33:48;3.30;;;1.00;;
2662;SDS011;49701;48.072;7.800;2022-07-26T07:36:14;3.08;;;1.02;;
2662;SDS011;49701;48.072;7.800;2022-07-26T07:38:39;7.15;;;1.10;;
2662;SDS011;49701;48.072;7.800;2022-07-26T07:41:05;2.53;;;0.88;;
2662;SDS011;49701;48.072;7.800;2022-07-26T07:43:30;2.70;;;1.10;;
2662;SDS011;49701;48.072;7.800;2022-07-26T07:45:56;2.65;;;0.90;;
2662;SDS011;49701;48.072;7.800;2022-07-26T08:02:55;4.50;;;1.00;;
2662;SDS011;49701;48.072;7.800;2022-07-26T08:05:20;2.65;;;1.00;;
2662;SDS011;49701;48.072;7.800;2022-07-26T08:07:46;2.33;;;1.17;;
2662;SDS011;49701;48.072;7.800;2022-07-26T08:12:37;3.22;;;1.10;;
2662;SDS011;49701;48.072;7.800;2022-07-26T08:15:03;1.95;;;0.98;;
2662;SDS011;49701;48.072;7.800;2022-07-26T08:17:29;1.75;;;0.82;;
2662;SDS011;49701;48.072;7.800;2022-07-26T08:19:55;2.25;;;1.00;;
2662;SDS011;49701;48.072;7.800;2022-07-26T08:22:20;1.98;;;0.82;;
2662;SDS011;49701;48.072;7.800;2022-07-26T08:24:46;2.67;;;0.80;;
2662;SDS011;49701;48.072;7.800;2022-07-26T08:27:12;2.75;;;1.00;;
2662;SDS011;49701;48.072;7.800;2022-07-26T08:29:38;4.72;;;0.80;;
2662;SDS011;49701;48.072;7.800;2022-07-26T08:32:04;1.65;;;1.05;;
2662;SDS011;49701;48.072;7.800;2022-07-26T08:34:30;3.42;;;0.95;;
2662;SDS011;49701;48.072;7.800;2022-07-26T08:36:55;2.40;;;0.70;;
2662;SDS011;49701;48.072;7.800;2022-07-26T08:39:21;3.25;;;0.70;;
2662;SDS011;49701;48.072;7.800;2022-07-26T08:41:46;1.58;;;0.80;;
2662;SDS011;49701;48.072;7.800;2022-07-26T08:44:12;1.38;;;0.68;;
2662;SDS011;49701;48.072;7.800;2022-07-26T08:46:38;2.70;;;0.98;;
2662;SDS011;49701;48.072;7.800;2022-07-26T08:49:06;4.03;;;0.85;;
2662;SDS011;49701;48.072;7.800;2022-07-26T08:51:33;1.55;;;0.93;;
2662;SDS011;49701;48.072;7.800;2022-07-26T08:54:07;2.97;;;0.90;;
2662;SDS011;49701;48.072;7.800;2022-07-26T08:56:35;2.35;;;0.70;;
2662;SDS011;49701;48.072;7.800;2022-07-26T08:59:12;5.10;;;1.10;;
2662;SDS011;49701;48.072;7.800;2022-07-26T09:01:55;2.22;;;0.90;;
2662;SDS011;49701;48.072;7.800;2022-07-26T09:04:30;1.15;;;0.70;;
2662;SDS011;49701;48.072;7.800;2022-07-26T09:07:05;4.68;;;0.80;;
2662;SDS011;49701;48.072;7.800;2022-07-26T09:09:36;0.85;;;0.50;;
2662;SDS011;49701;48.072;7.800;2022-07-26T09:12:19;1.77;;;0.73;;
2662;SDS011;49701;48.072;7.800;2022-07-26T09:14:46;3.22;;;0.60;;
2662;SDS011;49701;48.072;7.800;2022-07-26T09:17:16;3.70;;;0.95;;
2662;SDS011;49701;48.072;7.800;2022-07-26T09:19:44;2.55;;;0.65;;
2662;SDS011;49701;48.072;7.800;2022-07-26T09:22:11;2.30;;;0.82;;
2662;SDS011;49701;48.072;7.800;2022-07-26T09:24:43;2.25;;;0.70;;
2662;SDS011;49701;48.072;7.800;2022-07-26T09:27:14;1.15;;;0.60;;
2662;SDS011;49701;48.072;7.800;2022-07-26T09:32:21;1.58;;;0.90;;
2662;SDS011;49701;48.072;7.800;2022-07-26T09:34:49;0.73;;;0.50;;
2662;SDS011;49701;48.072;7.800;2022-07-26T09:37:16;2.38;;;0.80;;
2662;SDS011;49701;48.072;7.800;2022-07-26T09:39:54;1.13;;;0.82;;
2662;SDS011;49701;48.072;7.800;2022-07-26T09:42:25;3.10;;;1.10;;
2662;SDS011;49701;48.072;7.800;2022-07-26T09:44:51;1.33;;;0.65;;
2662;SDS011;49701;48.072;7.800;2022-07-26T09:47:17;1.83;;;0.70;;
2662;SDS011;49701;48.072;7.800;2022-07-26T09:49:43;2.88;;;0.75;;
2662;SDS011;49701;48.072;7.800;2022-07-26T09:52:17;1.80;;;0.88;;
2662;SDS011;49701;48.072;7.800;2022-07-26T09:54:44;2.58;;;0.80;;
2662;SDS011;49701;48.072;7.800;2022-07-26T09:57:13;2.90;;;0.75;;
2662;SDS011;49701;48.072;7.800;2022-07-26T09:59:40;2.70;;;0.73;;
2662;SDS011;49701;48.072;7.800;2022-07-26T10:02:06;3.60;;;0.60;;
2662;SDS011;49701;48.072;7.800;2022-07-26T10:04:31;4.15;;;0.90;;
2662;SDS011;49701;48.072;7.800;2022-07-26T10:06:57;2.40;;;0.65;;
2662;SDS011;49701;48.072;7.800;2022-07-26T10:09:23;2.05;;;0.80;;
2662;SDS011;49701;48.072;7.800;2022-07-26T10:11:51;1.90;;;0.80;;
2662;SDS011;49701;48.072;7.800;2022-07-26T10:14:33;3.20;;;0.60;;
2662;SDS011;49701;48.072;7.800;2022-07-26T10:17:01;3.33;;;0.88;;
2662;SDS011;49701;48.072;7.800;2022-07-26T10:19:59;2.33;;;0.65;;
2662;SDS011;49701;48.072;7.800;2022-07-26T10:38:00;1.92;;;0.60;;
2662;SDS011;49701;48.072;7.800;2022-07-26T10:40:30;2.72;;;0.60;;
2662;SDS011;49701;48.072;7.800;2022-07-26T10:43:13;2.53;;;0.70;;
2662;SDS011;49701;48.072;7.800;2022-07-26T10:45:40;2.30;;;0.60;;
2662;SDS011;49701;48.072;7.800;2022-07-26T10:48:10;1.70;;;0.50;;
2662;SDS011;49701;48.072;7.800;2022-07-26T10:53:07;3.58;;;0.68;;
2662;SDS011;49701;48.072;7.800;2022-07-26T10:55:48;4.60;;;0.70;;
2662;SDS011;49701;48.072;7.800;2022-07-26T10:58:17;2.67;;;0.90;;
2662;SDS011;49701;48.072;7.800;2022-07-26T11:00:53;1.42;;;0.60;;
2662;SDS011;49701;48.072;7.800;2022-07-26T11:03:19;1.25;;;0.40;;
2662;SDS011;49701;48.072;7.800;2022-07-26T11:05:45;3.10;;;0.68;;
2662;SDS011;49701;48.072;7.800;2022-07-26T11:08:11;1.67;;;0.70;;
2662;SDS011;49701;48.072;7.800;2022-07-26T11:13:13;2.38;;;0.68;;
2662;SDS011;49701;48.072;7.800;2022-07-26T11:15:44;1.52;;;0.70;;
2662;SDS011;49701;48.072;7.800;2022-07-26T11:18:16;4.00;;;0.80;;
2662;SDS011;49701;48.072;7.800;2022-07-26T11:23:31;0.98;;;0.60;;
2662;SDS011;49701;48.072;7.800;2022-07-26T11:26:08;1.80;;;0.73;;
2662;SDS011;49701;48.072;7.800;2022-07-26T11:29:12;2.17;;;0.65;;
2662;SDS011;49701;48.072;7.800;2022-07-26T11:31:40;2.33;;;0.70;;
2662;SDS011;49701;48.072;7.800;2022-07-26T11:34:14;3.22;;;0.60;;
2662;SDS011;49701;48.072;7.800;2022-07-26T11:36:43;2.83;;;0.90;;
2662;SDS011;49701;48.072;7.800;2022-07-26T11:39:11;2.95;;;0.90;;
2662;SDS011;49701;48.072;7.800;2022-07-26T11:41:39;3.78;;;0.68;;
2662;SDS011;49701;48.072;7.800;2022-07-26T11:44:06;1.55;;;0.60;;
2662;SDS011;49701;48.072;7.800;2022-07-26T11:46:43;0.98;;;0.57;;
2662;SDS011;49701;48.072;7.800;2022-07-26T11:49:19;2.28;;;0.60;;
2662;SDS011;49701;48.072;7.800;2022-07-26T11:51:55;1.95;;;0.85;;
2662;SDS011;49701;48.072;7.800;2022-07-26T11:54:24;2.83;;;0.80;;
2662;SDS011;49701;48.072;7.800;2022-07-26T11:56:58;1.45;;;0.70;;
2662;SDS011;49701;48.072;7.800;2022-07-26T11:59:31;2.17;;;0.50;;
2662;SDS011;49701;48.072;7.800;2022-07-26T12:04:27;1.77;;;0.70;;
2662;SDS011;49701;48.072;7.800;2022-07-26T12:06:55;1.63;;;0.70;;
2662;SDS011;49701;48.072;7.800;2022-07-26T12:09:33;2.65;;;0.80;;
2662;SDS011;49701;48.072;7.800;2022-07-26T12:12:01;4.43;;;0.80;;
2662;SDS011;49701;48.072;7.800;2022-07-26T12:15:11;1.67;;;0.80;;
2662;SDS011;49701;48.072;7.800;2022-07-26T12:17:36;1.95;;;0.65;;
2662;SDS011;49701;48.072;7.800;2022-07-26T12:20:12;0.75;;;0.52;;
2662;SDS011;49701;48.072;7.800;2022-07-26T12:22:39;3.17;;;0.60;;
2662;SDS011;49701;48.072;7.800;2022-07-26T12:25:05;2.85;;;0.55;;
2662;SDS011;49701;48.072;7.800;2022-07-26T12:27:32;3.53;;;0.52;;
2662;SDS011;49701;48.072;7.800;2022-07-26T12:35:06;13.65;;;0.80;;
2662;SDS011;49701;48.072;7.800;2022-07-26T12:37:34;1.45;;;0.52;;
2662;SDS011;49701;48.072;7.800;2022-07-26T12:42:31;1.65;;;0.65;;
2662;SDS011;49701;48.072;7.800;2022-07-26T12:44:59;1.10;;;0.50;;
2662;SDS011;49701;48.072;7.800;2022-07-26T12:47:26;2.50;;;0.60;;
2662;SDS011;49701;48.072;7.800;2022-07-26T12:49:52;1.77;;;0.70;;
2662;SDS011;49701;48.072;7.800;2022-07-26T12:52:19;2.63;;;0.80;;
2662;SDS011;49701;48.072;7.800;2022-07-26T12:54:47;2.08;;;0.68;;
2662;SDS011;49701;48.072;7.800;2022-07-26T12:57:13;2.05;;;0.68;;
2662;SDS011;49701;48.072;7.800;2022-07-26T12:59:39;0.65;;;0.40;;
2662;SDS011;49701;48.072;7.800;2022-07-26T13:02:05;2.28;;;0.63;;
2662;SDS011;49701;48.072;7.800;2022-07-26T13:04:31;1.02;;;0.60;;
2662;SDS011;49701;48.072;7.800;2022-07-26T13:06:57;1.53;;;0.60;;
2662;SDS011;49701;48.072;7.800;2022-07-26T13:09:23;2.20;;;0.50;;
2662;SDS011;49701;48.072;7.800;2022-07-26T13:11:49;2.80;;;0.63;;
2662;SDS011;49701;48.072;7.800;2022-07-26T13:14:15;1.42;;;0.63;;
2662;SDS011;49701;48.072;7.800;2022-07-26T13:16:40;4.60;;;0.60;;
2662;SDS011;49701;48.072;7.800;2022-07-26T13:19:06;3.22;;;0.55;;
2662;SDS011;49701;48.072;7.800;2022-07-26T13:21:32;1.25;;;0.50;;
2662;SDS011;49701;48.072;7.800;2022-07-26T13:23:57;1.20;;;0.60;;
2662;SDS011;49701;48.072;7.800;2022-07-26T13:26:23;4.15;;;0.68;;
2662;SDS011;49701;48.072;7.800;2022-07-26T13:28:49;1.45;;;0.60;;
2662;SDS011;49701;48.072;7.800;2022-07-26T13:31:14;2.03;;;0.60;;
2662;SDS011;49701;48.072;7.800;2022-07-26T13:33:40;0.60;;;0.60;;
2662;SDS011;49701;48.072;7.800;2022-07-26T13:36:06;0.85;;;0.60;;
2662;SDS011;49701;48.072;7.800;2022-07-26T13:38:32;2.55;;;0.60;;
2662;SDS011;49701;48.072;7.800;2022-07-26T13:40:58;1.67;;;0.68;;
2662;SDS011;49701;48.072;7.800;2022-07-26T13:43:26;0.70;;;0.60;;
2662;SDS011;49701;48.072;7.800;2022-07-26T13:45:51;0.85;;;0.60;;
2662;SDS011;49701;48.072;7.800;2022-07-26T13:48:17;2.05;;;0.68;;
2662;SDS011;49701;48.072;7.800;2022-07-26T13:50:42;1.60;;;0.60;;
2662;SDS011;49701;48.072;7.800;2022-07-26T13:53:08;1.55;;;0.60;;
2662;SDS011;49701;48.072;7.800;2022-07-26T13:55:34;1.50;;;0.80;;
2662;SDS011;49701;48.072;7.800;2022-07-26T13:57:59;2.08;;;0.70;;
2662;SDS011;49701;48.072;7.800;2022-07-26T14:05:16;0.95;;;0.60;;
2662;SDS011;49701;48.072;7.800;2022-07-26T14:07:41;3.45;;;0.60;;
2662;SDS011;49701;48.072;7.800;2022-07-26T14:10:07;2.78;;;0.77;;
2662;SDS011;49701;48.072;7.800;2022-07-26T14:12:33;2.15;;;0.60;;
2662;SDS011;49701;48.072;7.800;2022-07-26T14:14:58;1.45;;;0.60;;
2662;SDS011;49701;48.072;7.800;2022-07-26T14:19:49;0.60;;;0.60;;
2662;SDS011;49701;48.072;7.800;2022-07-26T14:22:15;0.73;;;0.50;;
2662;SDS011;49701;48.072;7.800;2022-07-26T14:24:41;2.65;;;0.73;;
2662;SDS011;49701;48.072;7.800;2022-07-26T14:27:06;1.80;;;0.45;;
2662;SDS011;49701;48.072;7.800;2022-07-26T14:29:33;1.45;;;0.50;;
2662;SDS011;49701;48.072;7.800;2022-07-26T14:31:59;1.48;;;0.77;;
2662;SDS011;49701;48.072;7.800;2022-07-26T14:34:25;0.95;;;0.50;;
2662;SDS011;49701;48.072;7.800;2022-07-26T14:36:51;1.17;;;0.60;;
2662;SDS011;49701;48.072;7.800;2022-07-26T14:39:17;0.70;;;0.60;;
2662;SDS011;49701;48.072;7.800;2022-07-26T14:41:42;1.13;;;0.60;;
2662;SDS011;49701;48.072;7.800;2022-07-26T14:44:08;1.88;;;0.70;;
2662;SDS011;49701;48.072;7.800;2022-07-26T14:46:34;1.48;;;0.50;;
2662;SDS011;49701;48.072;7.800;2022-07-26T14:48:59;2.67;;;0.80;;
2662;SDS011;49701;48.072;7.800;2022-07-26T14:51:25;3.08;;;0.90;;
2662;SDS011;49701;48.072;7.800;2022-07-26T14:53:50;2.85;;;0.70;;
2662;SDS011;49701;48.072;7.800;2022-07-26T14:56:16;1.83;;;0.60;;
2662;SDS011;49701;48.072;7.800;2022-07-26T14:58:42;0.93;;;0.50;;
2662;SDS011;49701;48.072;7.800;2022-07-26T15:01:07;0.50;;;0.50;;
2662;SDS011;49701;48.072;7.800;2022-07-26T15:03:33;1.77;;;0.68;;
2662;SDS011;49701;48.072;7.800;2022-07-26T15:05:58;3.00;;;0.70;;
2662;SDS011;49701;48.072;7.800;2022-07-26T15:08:24;1.65;;;0.50;;
2662;SDS011;49701;48.072;7.800;2022-07-26T15:10:49;0.90;;;0.60;;
2662;SDS011;49701;48.072;7.800;2022-07-26T15:13:15;2.10;;;0.57;;
2662;SDS011;49701;48.072;7.800;2022-07-26T15:15:41;1.30;;;0.60;;
2662;SDS011;49701;48.072;7.800;2022-07-26T15:18:07;1.10;;;0.60;;
2662;SDS011;49701;48.072;7.800;2022-07-26T15:20:32;2.30;;;0.50;;
2662;SDS011;49701;48.072;7.800;2022-07-26T15:22:59;2.78;;;0.52;;
2662;SDS011;49701;48.072;7.800;2022-07-26T15:25:24;2.17;;;0.63;;
2662;SDS011;49701;48.072;7.800;2022-07-26T15:27:50;1.60;;;0.50;;
2662;SDS011;49701;48.072;7.800;2022-07-26T15:30:16;5.90;;;0.82;;
2662;SDS011;49701;48.072;7.800;2022-07-26T15:32:43;8.77;;;1.05;;
2662;SDS011;49701;48.072;7.800;2022-07-26T15:35:09;12.15;;;0.90;;
2662;SDS011;49701;48.072;7.800;2022-07-26T15:37:35;30.60;;;1.90;;
2662;SDS011;49701;48.072;7.800;2022-07-26T15:40:02;187.45;;;22.98;;
2662;SDS011;49701;48.072;7.800;2022-07-26T15:42:29;73.55;;;8.52;;
2662;SDS011;49701;48.072;7.800;2022-07-26T15:44:56;271.23;;;33.38;;
2662;SDS011;49701;48.072;7.800;2022-07-26T15:47:21;552.38;;;67.70;;
2662;SDS011;49701;48.072;7.800;2022-07-26T15:49:47;303.75;;;37.35;;
2662;SDS011;49701;48.072;7.800;2022-07-26T15:52:12;206.98;;;25.88;;
2662;SDS011;49701;48.072;7.800;2022-07-26T15:54:41;453.15;;;63.63;;
2662;SDS011;49701;48.072;7.800;2022-07-26T15:57:07;347.50;;;44.00;;
2662;SDS011;49701;48.072;7.800;2022-07-26T15:59:32;37.30;;;5.88;;
2662;SDS011;49701;48.072;7.800;2022-07-26T16:01:58;8.80;;;1.55;;
2662;SDS011;49701;48.072;7.800;2022-07-26T16:04:24;4.65;;;1.27;;
2662;SDS011;49701;48.072;7.800;2022-07-26T16:06:49;3.55;;;0.77;;
2662;SDS011;49701;48.072;7.800;2022-07-26T16:09:15;4.93;;;0.82;;
2662;SDS011;49701;48.072;7.800;2022-07-26T16:11:40;2.63;;;0.50;;
2662;SDS011;49701;48.072;7.800;2022-07-26T16:14:06;5.95;;;0.95;;
2662;SDS011;49701;48.072;7.800;2022-07-26T16:16:32;13.20;;;1.48;;
2662;SDS011;49701;48.072;7.800;2022-07-26T16:18:57;1.00;;;0.60;;
2662;SDS011;49701;48.072;7.800;2022-07-26T16:21:23;8.50;;;0.95;;
2662;SDS011;49701;48.072;7.800;2022-07-26T16:23:49;3.65;;;0.90;;
2662;SDS011;49701;48.072;7.800;2022-07-26T16:26:15;1.05;;;0.43;;
2662;SDS011;49701;48.072;7.800;2022-07-26T16:28:41;1.23;;;0.63;;
2662;SDS011;49701;48.072;7.800;2022-07-26T16:31:06;0.65;;;0.57;;
2662;SDS011;49701;48.072;7.800;2022-07-26T16:33:32;2.15;;;0.45;;
2662;SDS011;49701;48.072;7.800;2022-07-26T16:35:58;1.95;;;0.70;;
2662;SDS011;49701;48.072;7.800;2022-07-26T16:38:23;1.98;;;0.82;;
2662;SDS011;49701;48.072;7.800;2022-07-26T16:40:49;2.92;;;0.70;;
2662;SDS011;49701;48.072;7.800;2022-07-26T16:43:14;0.75;;;0.50;;
2662;SDS011;49701;48.072;7.800;2022-07-26T16:45:40;0.95;;;0.50;;
2662;SDS011;49701;48.072;7.800;2022-07-26T16:48:05;2.70;;;0.52;;
2662;SDS011;49701;48.072;7.800;2022-07-26T16:50:32;3.03;;;0.50;;
2662;SDS011;49701;48.072;7.800;2022-07-26T16:52:58;1.98;;;0.80;;
2662;SDS011;49701;48.072;7.800;2022-07-26T16:55:24;8.38;;;3.67;;
2662;SDS011;49701;48.072;7.800;2022-07-26T17:00:15;1.10;;;0.70;;
2662;SDS011;49701;48.072;7.800;2022-07-26T17:02:42;0.55;;;0.50;;
2662;SDS011;49701;48.072;7.800;2022-07-26T17:05:08;3.17;;;0.70;;
2662;SDS011;49701;48.072;7.800;2022-07-26T17:07:35;1.00;;;0.80;;
2662;SDS011;49701;48.072;7.800;2022-07-26T17:10:01;1.23;;;0.70;;
2662;SDS011;49701;48.072;7.800;2022-07-26T17:12:28;1.92;;;0.63;;
2662;SDS011;49701;48.072;7.800;2022-07-26T17:14:53;2.15;;;0.60;;
2662;SDS011;49701;48.072;7.800;2022-07-26T17:17:19;0.93;;;0.75;;
2662;SDS011;49701;48.072;7.800;2022-07-26T17:19:45;0.95;;;0.68;;
2662;SDS011;49701;48.072;7.800;2022-07-26T17:22:10;2.45;;;0.65;;
2662;SDS011;49701;48.072;7.800;2022-07-26T17:24:36;1.10;;;0.50;;
2662;SDS011;49701;48.072;7.800;2022-07-26T17:27:02;1.65;;;0.50;;
2662;SDS011;49701;48.072;7.800;2022-07-26T17:29:27;1.42;;;0.77;;
2662;SDS011;49701;48.072;7.800;2022-07-26T17:31:53;1.95;;;0.52;;
2662;SDS011;49701;48.072;7.800;2022-07-26T17:34:19;0.90;;;0.57;;
2662;SDS011;49701;48.072;7.800;2022-07-26T17:36:44;2.20;;;0.60;;
2662;SDS011;49701;48.072;7.800;2022-07-26T17:39:10;0.85;;;0.52;;
2662;SDS011;49701;48.072;7.800;2022-07-26T17:41:36;0.90;;;0.43;;
2662;SDS011;49701;48.072;7.800;2022-07-26T17:44:01;0.75;;;0.60;;
2662;SDS011;49701;48.072;7.800;2022-07-26T17:48:55;1.00;;;0.75;;
2662;SDS011;49701;48.072;7.800;2022-07-26T17:51:21;1.23;;;0.73;;
2662;SDS011;49701;48.072;7.800;2022-07-26T17:53:46;0.82;;;0.68;;
2662;SDS011;49701;48.072;7.800;2022-07-26T17:56:12;2.25;;;0.65;;
2662;SDS011;49701;48.072;7.800;2022-07-26T17:58:38;2.80;;;0.60;;
2662;SDS011;49701;48.072;7.800;2022-07-26T18:01:04;1.08;;;0.55;;
2662;SDS011;49701;48.072;7.800;2022-07-26T18:03:30;1.55;;;0.57;;
2662;SDS011;49701;48.072;7.800;2022-07-26T18:05:56;1.92;;;0.52;;
2662;SDS011;49701;48.072;7.800;2022-07-26T18:08:21;2.55;;;0.70;;
2662;SDS011;49701;48.072;7.800;2022-07-26T18:10:51;2.35;;;0.70;;
2662;SDS011;49701;48.072;7.800;2022-07-26T18:13:17;1.23;;;0.60;;
2662;SDS011;49701;48.072;7.800;2022-07-26T18:15:43;3.63;;;0.50;;